createdAt,value
2022-12-31T00:00:11.944Z,96468.00
2022-12-31T00:05:13.945Z,96476.00
2022-12-31T00:10:14.814Z,96480.00
2022-12-31T00:15:15.969Z,96487.00
2022-12-31T00:20:16.739Z,96475.00
2022-12-31T00:25:17.912Z,96489.00
2022-12-31T00:30:18.658Z,96495.00
2022-12-31T00:35:19.433Z,96501.00
2022-12-31T00:40:20.224Z,96502.00
2022-12-31T00:45:21.327Z,96508.00
2022-12-31T00:50:22.059Z,96502.00
2022-12-31T00:55:23.192Z,96504.00
2022-12-31T01:00:24.028Z,96511.00
2022-12-31T01:05:24.816Z,96518.00
2022-12-31T01:10:44.254Z,96521.00
2022-12-31T01:15:45.234Z,96529.00
2022-12-31T01:20:45.962Z,96532.00
2022-12-31T01:25:46.806Z,96545.00
2022-12-31T01:30:47.545Z,96544.00
2022-12-31T01:35:48.585Z,96556.00
2022-12-31T01:40:49.323Z,96561.00
2022-12-31T01:45:53.524Z,96565.00
2022-12-31T01:50:54.417Z,96582.00
2022-12-31T01:55:58.669Z,96567.00
2022-12-31T02:00:59.841Z,96570.00
2022-12-31T02:06:07.910Z,96567.00
2022-12-31T02:11:28.362Z,96579.00
2022-12-31T02:17:03.151Z,96578.00
2022-12-31T02:28:00.947Z,96581.00
2022-12-31T02:33:25.409Z,96571.00
2022-12-31T02:38:31.135Z,96587.00
2022-12-31T02:43:31.967Z,96579.00
2022-12-31T02:50:29.627Z,96587.00
2022-12-31T02:55:42.174Z,96580.00
2022-12-31T03:01:09.250Z,96591.00
2022-12-31T03:06:11.354Z,96578.00
2022-12-31T03:12:45.307Z,96580.00
2022-12-31T03:20:17.081Z,96583.00
2022-12-31T03:25:37.152Z,96587.00
2022-12-31T03:30:40.201Z,96582.00
2022-12-31T03:35:42.833Z,96595.00
2022-12-31T03:40:47.516Z,96602.00
2022-12-31T03:45:53.096Z,96602.00
2022-12-31T03:50:53.908Z,96602.00
2022-12-31T03:55:54.978Z,96599.00
2022-12-31T04:00:55.909Z,96592.00
2022-12-31T04:05:56.783Z,96611.00
2022-12-31T04:10:57.735Z,96625.00
2022-12-31T04:15:58.691Z,96621.00
2022-12-31T04:21:04.458Z,96617.00
2022-12-31T04:26:05.190Z,96611.00
2022-12-31T04:31:05.996Z,96625.00
2022-12-31T04:36:07.791Z,96628.00
2022-12-31T04:41:17.628Z,96626.00
2022-12-31T04:46:21.245Z,96636.00
2022-12-31T04:51:23.152Z,96649.00
2022-12-31T04:56:24.721Z,96648.00
2022-12-31T05:01:25.601Z,96658.00
2022-12-31T05:06:26.522Z,96661.00
2022-12-31T05:11:27.609Z,96665.00
2022-12-31T05:16:28.360Z,96660.00
2022-12-31T05:21:29.235Z,96665.00
2022-12-31T05:26:30.016Z,96660.00
2022-12-31T05:31:30.790Z,96664.00
2022-12-31T05:36:31.524Z,96665.00
2022-12-31T05:41:32.343Z,96679.00
2022-12-31T05:46:33.135Z,96675.00
2022-12-31T05:51:34.318Z,96684.00
2022-12-31T05:56:35.092Z,96683.00
2022-12-31T06:01:35.945Z,96696.00
2022-12-31T06:06:36.899Z,96696.00
2022-12-31T06:11:37.910Z,96707.00
2022-12-31T06:16:39.931Z,96701.00
2022-12-31T06:21:40.757Z,96714.00
2022-12-31T06:26:41.521Z,96721.00
2022-12-31T06:31:42.300Z,96732.00
2022-12-31T06:36:43.100Z,96732.00
2022-12-31T06:41:43.980Z,96748.00
2022-12-31T06:46:45.258Z,96749.00
2022-12-31T06:51:47.292Z,96747.00
2022-12-31T06:56:48.549Z,96741.00
2022-12-31T07:03:38.314Z,96747.00
2022-12-31T07:08:55.828Z,96756.00
2022-12-31T07:14:31.751Z,96758.00
2022-12-31T07:21:31.669Z,96754.00
2022-12-31T07:28:07.860Z,96762.00
2022-12-31T07:33:59.498Z,96785.00
2022-12-31T07:39:12.991Z,96792.00
2022-12-31T07:44:34.575Z,96784.00
2022-12-31T07:49:37.897Z,96794.00
2022-12-31T07:54:38.679Z,96811.00
2022-12-31T08:00:22.716Z,96813.00
2022-12-31T08:05:57.826Z,96813.00
2022-12-31T08:11:20.717Z,96818.00
2022-12-31T08:16:22.043Z,96807.00
2022-12-31T08:23:25.161Z,96823.00
2022-12-31T08:29:34.164Z,96813.00
2022-12-31T08:34:47.679Z,96820.00
2022-12-31T08:40:06.548Z,96823.00
2022-12-31T08:45:24.108Z,96829.00
2022-12-31T08:50:25.450Z,96840.00
2022-12-31T08:55:26.861Z,96852.00
2022-12-31T09:00:30.011Z,96860.00
2022-12-31T09:06:01.590Z,96858.00
2022-12-31T09:14:35.856Z,96862.00
2022-12-31T09:19:36.648Z,96868.00
2022-12-31T09:24:38.214Z,96865.00
2022-12-31T09:30:03.971Z,96872.00
2022-12-31T09:35:54.525Z,96878.00
2022-12-31T09:41:12.208Z,96881.00
2022-12-31T09:46:50.900Z,96865.00
2022-12-31T09:53:42.194Z,96883.00
2022-12-31T09:59:10.282Z,96894.00
2022-12-31T10:11:18.735Z,96911.00
2022-12-31T10:16:53.476Z,96913.00
2022-12-31T10:23:53.292Z,96932.00
2022-12-31T10:29:41.655Z,96928.00
2022-12-31T10:41:58.062Z,96928.00
2022-12-31T10:49:09.847Z,96933.00
2022-12-31T10:56:55.781Z,96934.00
2022-12-31T11:06:17.379Z,96936.00
2022-12-31T11:11:44.179Z,96929.00
2022-12-31T11:17:39.703Z,96940.00
2022-12-31T11:24:53.701Z,96942.00
2022-12-31T11:36:34.496Z,96939.00
2022-12-31T11:41:51.242Z,96946.00
2022-12-31T11:47:21.403Z,96951.00
2022-12-31T11:54:02.090Z,96947.00
2022-12-31T11:59:14.372Z,96930.00
2022-12-31T12:04:19.705Z,96941.00
2022-12-31T12:09:28.548Z,96918.00
2022-12-31T12:14:35.796Z,96913.00
2022-12-31T12:19:43.331Z,96917.00
2022-12-31T12:24:56.170Z,96913.00
2022-12-31T12:29:57.590Z,96900.00
2022-12-31T12:34:59.202Z,96900.00
2022-12-31T12:40:03.084Z,96901.00
2022-12-31T12:45:13.328Z,96894.00
2022-12-31T12:50:21.090Z,96876.00
2022-12-31T12:55:53.495Z,96882.00
2022-12-31T13:01:47.124Z,96897.00
2022-12-31T13:13:42.408Z,96905.00
2022-12-31T13:20:56.035Z,96899.00
2022-12-31T13:28:34.825Z,96877.00
2022-12-31T13:33:42.059Z,96868.00
2022-12-31T13:38:52.275Z,96877.00
2022-12-31T13:44:27.227Z,96871.00
2022-12-31T13:49:47.771Z,96878.00
2022-12-31T13:54:57.536Z,96888.00
2022-12-31T14:00:03.482Z,96889.00
2022-12-31T14:06:03.664Z,96889.00
2022-12-31T14:11:26.518Z,96885.00
2022-12-31T14:18:08.097Z,96885.00
2022-12-31T14:24:05.136Z,96893.00
2022-12-31T14:29:46.570Z,96891.00
2022-12-31T14:35:05.188Z,96879.00
2022-12-31T14:40:40.943Z,96892.00
2022-12-31T14:49:05.408Z,96891.00
2022-12-31T14:54:28.976Z,96890.00
2022-12-31T14:59:34.437Z,96893.00
2022-12-31T15:04:45.297Z,96890.00
2022-12-31T15:10:02.320Z,96884.00
2022-12-31T15:15:24.880Z,96889.00
2022-12-31T15:22:11.002Z,96899.00
2022-12-31T15:27:35.136Z,96907.00
2022-12-31T15:32:40.144Z,96910.00
2022-12-31T15:37:41.287Z,96914.00
2022-12-31T15:42:54.705Z,96920.00
2022-12-31T15:47:58.665Z,96923.00
2022-12-31T15:53:01.969Z,96920.00
2022-12-31T15:58:11.786Z,96929.00
2022-12-31T16:03:24.813Z,96920.00
2022-12-31T16:08:30.059Z,96930.00
2022-12-31T16:13:31.961Z,96927.00
2022-12-31T16:18:43.728Z,96931.00
2022-12-31T16:23:49.704Z,96932.00
2022-12-31T16:28:51.392Z,96929.00
2022-12-31T16:34:01.415Z,96928.00
2022-12-31T16:39:43.888Z,96922.00
2022-12-31T18:47:24.003Z,96957.00
2022-12-31T18:52:24.945Z,96962.00
2022-12-31T18:57:26.121Z,96954.00
2022-12-31T19:02:26.933Z,96959.00
2022-12-31T19:07:27.710Z,96965.00
2022-12-31T19:12:28.526Z,96957.00
2022-12-31T19:17:29.317Z,96973.00
2022-12-31T19:22:30.265Z,96967.00
2022-12-31T19:27:30.994Z,96958.00
2022-12-31T19:32:31.828Z,96967.00
2022-12-31T19:37:32.567Z,96972.00
2022-12-31T19:42:33.351Z,96962.00
2022-12-31T19:47:34.090Z,96966.00
2022-12-31T19:52:35.075Z,96977.00
2022-12-31T19:57:39.078Z,96988.00
2022-12-31T20:02:40.871Z,96985.00
2022-12-31T20:07:42.351Z,96996.00
2022-12-31T20:12:44.703Z,96989.00
2022-12-31T20:17:45.776Z,96979.00
2022-12-31T20:22:46.810Z,96988.00
2022-12-31T20:27:47.587Z,96988.00
2022-12-31T20:32:51.006Z,96989.00
2022-12-31T20:37:51.789Z,96987.00
2022-12-31T20:42:52.605Z,96998.00
2022-12-31T20:47:53.327Z,96991.00
2022-12-31T20:52:54.528Z,97002.00
2022-12-31T20:57:55.362Z,97001.00
2022-12-31T21:03:04.986Z,97002.00
2022-12-31T21:08:11.575Z,96999.00
2022-12-31T21:13:12.351Z,97003.00
2022-12-31T21:18:13.186Z,97005.00
2022-12-31T21:23:15.044Z,97004.00
2022-12-31T21:28:15.819Z,97011.00
2022-12-31T21:33:16.635Z,97019.00
2022-12-31T21:38:18.029Z,97019.00
2022-12-31T21:43:18.983Z,97019.00
2022-12-31T21:48:19.770Z,97022.00
2022-12-31T21:53:26.158Z,97032.00
2022-12-31T21:58:29.921Z,97048.00
2022-12-31T22:03:31.471Z,97041.00
2022-12-31T22:08:32.417Z,97059.00
2022-12-31T22:13:34.069Z,97046.00
2022-12-31T22:18:40.176Z,97060.00
2022-12-31T22:23:41.679Z,97056.00
2022-12-31T22:28:44.036Z,97064.00
2022-12-31T22:33:45.727Z,97073.00
2022-12-31T22:38:47.582Z,97066.00
2022-12-31T22:43:55.968Z,97070.00
2022-12-31T22:49:03.166Z,97073.00
2022-12-31T22:54:04.351Z,97071.00
2022-12-31T22:59:05.271Z,97069.00
2022-12-31T23:04:06.250Z,97075.00
2022-12-31T23:09:25.695Z,97087.00
2022-12-31T23:14:44.915Z,97087.00
2022-12-31T23:20:04.349Z,97099.00
2022-12-31T23:25:05.469Z,97099.00
2022-12-31T23:30:07.271Z,97093.00
2022-12-31T23:35:10.047Z,97096.00
2022-12-31T23:40:15.733Z,97093.00
2022-12-31T23:45:19.990Z,97104.00
2022-12-31T23:50:20.715Z,97092.00
2022-12-31T23:55:21.622Z,97095.00
